Time;durP1;ratioP1;P1;durP2;ratioP2;P2;SDS_P1;SDS_P2;PMS_P1;PMS_P2;Temp;Humidity;BMP_temperature;BMP_pressure;BME280_temperature;BME280_humidity;BME280_pressure;Samples;Min_cycle;Max_cycle;Signal;HPM_P1;HPM_P2
2023/04/17 00:01:38;;;;;;;3.83;3.73;;;18.40;65.60;;;;;;5069201;28;43450;-76
2023/04/17 00:04:09;;;;;;;4.00;3.90;;;18.40;65.40;;;;;;5068857;28;43421;-76
2023/04/17 00:06:38;;;;;;;3.73;3.63;;;18.40;65.20;;;;;;5069585;28;43465;-76
2023/04/17 00:09:07;;;;;;;3.60;3.50;;;18.40;65.30;;;;;;5068535;28;43810;-76
2023/04/17 00:11:38;;;;;;;3.93;3.83;;;18.40;65.40;;;;;;5068186;28;44442;-75
2023/04/17 00:14:06;;;;;;;3.50;3.40;;;18.30;65.50;;;;;;5065386;28;43461;-75
2023/04/17 00:16:34;;;;;;;3.67;3.57;;;18.40;65.60;;;;;;5067982;28;43597;-76
2023/04/17 00:19:02;;;;;;;3.90;3.80;;;18.50;65.40;;;;;;5057563;28;43818;-74
2023/04/17 00:21:31;;;;;;;3.93;3.83;;;18.60;65.00;;;;;;5071477;28;44912;-77
2023/04/17 00:23:58;;;;;;;3.67;3.57;;;18.70;64.80;;;;;;5067820;28;43541;-76
2023/04/17 00:26:28;;;;;;;4.00;3.90;;;18.70;64.50;;;;;;5063513;28;43487;-76
2023/04/17 00:28:56;;;;;;;3.90;3.80;;;18.60;64.70;;;;;;5069281;28;43676;-76
2023/04/17 00:31:24;;;;;;;4.23;4.13;;;18.60;64.70;;;;;;5068813;28;43840;-71
2023/04/17 00:33:52;;;;;;;3.73;3.63;;;18.60;64.60;;;;;;5067793;28;43441;-75
2023/04/17 00:36:20;;;;;;;3.50;3.40;;;18.60;64.60;;;;;;5065144;28;43435;-76
2023/04/17 00:38:48;;;;;;;3.70;3.60;;;18.50;64.70;;;;;;5062454;28;43903;-76
2023/04/17 00:41:16;;;;;;;3.50;3.40;;;18.50;64.80;;;;;;5070949;27;44906;-75
2023/04/17 00:43:46;;;;;;;3.60;3.50;;;18.50;65.20;;;;;;5068854;28;43490;-74
2023/04/17 00:46:14;;;;;;;3.43;3.33;;;18.50;65.10;;;;;;5068982;28;43378;-74
2023/04/17 00:48:43;;;;;;;3.10;3.10;;;18.50;65.00;;;;;;5066907;28;45990;-76
2023/04/17 00:51:10;;;;;;;3.53;3.43;;;18.50;65.10;;;;;;5068963;28;44492;-76
2023/04/17 00:53:39;;;;;;;3.57;3.47;;;18.40;65.10;;;;;;5070304;28;43363;-76
2023/04/17 00:56:07;;;;;;;3.50;3.40;;;18.40;65.30;;;;;;5068916;28;43391;-76
2023/04/17 00:58:36;;;;;;;3.83;3.73;;;18.40;65.50;;;;;;5066805;28;45963;-76
2023/04/17 01:01:05;;;;;;;3.73;3.63;;;18.40;65.30;;;;;;5068189;28;43416;-76
2023/04/17 01:03:33;;;;;;;3.60;3.50;;;18.40;65.20;;;;;;5069452;28;43447;-77
2023/04/17 01:06:02;;;;;;;3.10;3.10;;;18.40;65.20;;;;;;5062305;28;44041;-77
2023/04/17 01:08:31;;;;;;;3.30;3.20;;;18.40;65.30;;;;;;5066998;28;46789;-77
2023/04/17 01:11:00;;;;;;;3.60;3.50;;;18.40;65.50;;;;;;5068168;28;43443;-76
2023/04/17 01:13:27;;;;;;;3.47;3.37;;;18.40;65.60;;;;;;5067133;28;43472;-76
2023/04/17 01:15:56;;;;;;;3.57;3.47;;;18.50;65.40;;;;;;5069252;28;43944;-76
2023/04/17 01:18:29;;;;;;;3.63;3.53;;;18.60;65.10;;;;;;5060587;28;44824;-76
2023/04/17 01:20:56;;;;;;;3.47;3.37;;;18.60;64.70;;;;;;5068354;28;43477;-76
2023/04/17 01:23:24;;;;;;;3.53;3.43;;;18.60;64.60;;;;;;5066527;28;43374;-77
2023/04/17 01:25:54;;;;;;;3.70;3.60;;;18.60;64.70;;;;;;5066665;28;43552;-74
2023/04/17 01:28:25;;;;;;;3.43;3.33;;;18.60;64.80;;;;;;5065834;28;44033;-76
2023/04/17 01:30:53;;;;;;;3.33;3.23;;;18.60;64.70;;;;;;5066422;28;45140;-76
2023/04/17 01:33:21;;;;;;;3.20;3.20;;;18.60;64.70;;;;;;5067644;28;44004;-76
2023/04/17 01:35:49;;;;;;;3.30;3.20;;;18.50;64.80;;;;;;5068353;28;44673;-76
2023/04/17 01:38:17;;;;;;;3.47;3.37;;;18.50;64.90;;;;;;5065877;28;45896;-77
2023/04/17 01:40:45;;;;;;;3.43;3.33;;;18.50;65.30;;;;;;5053387;28;45798;-75
2023/04/17 01:43:14;;;;;;;3.17;3.07;;;18.40;65.10;;;;;;5067880;28;43477;-75
2023/04/17 01:45:42;;;;;;;3.17;3.17;;;18.40;65.00;;;;;;5066639;28;43453;-74
2023/04/17 01:48:11;;;;;;;3.50;3.40;;;18.50;65.20;;;;;;5054857;28;46095;-77
2023/04/17 01:50:39;;;;;;;3.20;3.20;;;18.40;65.10;;;;;;5067451;28;44063;-76
2023/04/17 01:53:07;;;;;;;3.50;3.40;;;18.40;65.30;;;;;;5067457;28;43394;-77
2023/04/17 01:55:35;;;;;;;3.40;3.30;;;18.40;65.60;;;;;;5066214;28;43436;-76
2023/04/17 01:58:03;;;;;;;3.20;3.20;;;18.40;65.30;;;;;;5055003;28;45925;-77
2023/04/17 02:00:32;;;;;;;3.20;3.20;;;18.50;65.20;;;;;;5065786;28;44854;-74
2023/04/17 02:03:00;;;;;;;3.37;3.27;;;18.50;65.00;;;;;;5067366;28;43389;-76
2023/04/17 02:05:28;;;;;;;3.83;3.73;;;18.50;64.90;;;;;;5066855;28;43509;-76
2023/04/17 02:07:56;;;;;;;3.33;3.33;;;18.50;65.10;;;;;;5065740;28;45653;-76
2023/04/17 02:10:26;;;;;;;3.70;3.60;;;18.40;65.20;;;;;;5067639;28;43314;-77
2023/04/17 02:12:54;;;;;;;3.20;3.10;;;18.50;65.20;;;;;;5070091;28;44464;-76
2023/04/17 02:15:22;;;;;;;3.50;3.40;;;18.40;65.00;;;;;;5067539;28;43581;-77
2023/04/17 02:17:51;;;;;;;3.50;3.40;;;18.40;65.10;;;;;;5064100;28;45801;-76
2023/04/17 02:20:19;;;;;;;3.70;3.50;;;18.40;65.20;;;;;;5063615;28;43461;-77
2023/04/17 02:22:47;;;;;;;3.50;3.40;;;18.40;66.20;;;;;;5066787;28;43861;-76
2023/04/17 02:25:15;;;;;;;3.70;3.60;;;18.40;65.40;;;;;;5067800;28;43348;-76
2023/04/17 02:27:43;;;;;;;3.10;3.10;;;18.50;65.20;;;;;;5065614;28;45351;-76
2023/04/17 02:30:12;;;;;;;3.47;3.37;;;18.60;65.00;;;;;;5066930;28;43931;-76
2023/04/17 02:32:40;;;;;;;3.40;3.30;;;18.60;64.80;;;;;;5065270;28;43453;-76
2023/04/17 02:35:10;;;;;;;3.40;3.30;;;18.50;64.70;;;;;;5065591;28;44012;-76
2023/04/17 02:37:38;;;;;;;3.30;3.20;;;18.50;65.00;;;;;;5065421;28;45774;-76
2023/04/17 02:40:08;;;;;;;3.33;3.23;;;18.50;64.90;;;;;;5065117;28;43963;-76
2023/04/17 02:42:37;;;;;;;3.40;3.30;;;18.50;64.80;;;;;;5063130;28;43430;-76
2023/04/17 02:45:06;;;;;;;3.23;3.20;;;18.50;64.90;;;;;;5071406;28;43754;-73
2023/04/17 02:47:35;;;;;;;2.93;2.93;;;18.50;65.00;;;;;;5065163;28;46018;-77
2023/04/17 02:50:03;;;;;;;3.17;2.97;;;18.40;65.10;;;;;;5060720;28;46027;-75
2023/04/17 02:52:39;;;;;;;3.43;3.33;;;18.40;65.40;;;;;;5064099;28;43521;-76
2023/04/17 02:55:08;;;;;;;3.17;3.07;;;18.40;65.20;;;;;;5069344;28;44042;-76
2023/04/17 02:57:37;;;;;;;3.20;3.13;;;18.40;65.20;;;;;;5064756;28;43973;-76
2023/04/17 03:00:07;;;;;;;3.30;3.20;;;18.40;65.30;;;;;;5051087;28;45025;-76
2023/04/17 03:02:36;;;;;;;3.40;3.40;;;18.40;65.40;;;;;;5066491;28;43382;-76
2023/04/17 03:05:05;;;;;;;3.47;3.37;;;18.30;65.60;;;;;;5065347;28;43458;-76
2023/04/17 03:07:33;;;;;;;3.10;3.10;;;18.40;65.60;;;;;;5064961;28;46056;-76
2023/04/17 03:10:05;;;;;;;3.10;3.10;;;18.50;65.40;;;;;;5048134;28;44998;-76
2023/04/17 03:12:33;;;;;;;3.33;3.23;;;18.60;65.10;;;;;;5052922;28;43974;-76
2023/04/17 03:15:01;;;;;;;3.10;3.10;;;18.60;64.80;;;;;;5058899;28;43622;-73
2023/04/17 03:17:29;;;;;;;2.97;2.97;;;18.60;64.80;;;;;;5058369;28;43815;-76
2023/04/17 03:19:57;;;;;;;3.27;3.20;;;18.50;65.00;;;;;;5061815;28;43979;-76
2023/04/17 03:22:25;;;;;;;3.50;3.40;;;18.50;65.00;;;;;;5051627;28;44061;-76
2023/04/17 03:24:53;;;;;;;3.30;3.20;;;18.50;64.90;;;;;;5061523;28;43471;-76
2023/04/17 03:27:25;;;;;;;3.10;3.10;;;18.50;64.90;;;;;;5053946;28;43878;-76
2023/04/17 03:29:54;;;;;;;3.30;3.20;;;18.50;65.00;;;;;;5064657;28;43923;-76
2023/04/17 03:32:24;;;;;;;3.10;3.00;;;18.40;65.10;;;;;;5063451;28;43715;-76
2023/04/17 03:34:52;;;;;;;3.10;3.10;;;18.40;65.40;;;;;;5066128;28;43423;-76
2023/04/17 03:37:20;;;;;;;2.80;2.80;;;18.40;65.20;;;;;;5066414;28;43893;-74
2023/04/17 03:39:48;;;;;;;3.03;2.97;;;18.40;65.10;;;;;;5065739;28;43368;-75
2023/04/17 03:42:16;;;;;;;3.17;3.07;;;18.40;65.20;;;;;;5066369;28;43516;-76
2023/04/17 03:44:45;;;;;;;3.13;3.03;;;18.40;65.30;;;;;;5064474;28;43482;-76
2023/04/17 03:47:14;;;;;;;3.30;3.27;;;18.30;65.50;;;;;;5064305;28;44264;-75
2023/04/17 03:49:42;;;;;;;2.93;2.83;;;18.40;65.60;;;;;;5064289;28;43669;-76
2023/04/17 03:52:10;;;;;;;2.70;2.70;;;18.50;65.40;;;;;;5066064;28;43447;-76
2023/04/17 03:54:39;;;;;;;2.73;2.73;;;18.50;65.10;;;;;;5063326;28;43589;-76
2023/04/17 03:57:07;;;;;;;2.80;2.80;;;18.50;64.90;;;;;;5064133;28;46224;-75
2023/04/17 03:59:35;;;;;;;2.93;2.93;;;18.50;64.90;;;;;;5064905;28;43457;-76
2023/04/17 04:02:05;;;;;;;2.80;2.80;;;18.50;65.10;;;;;;5065856;28;43419;-76
2023/04/17 04:04:35;;;;;;;3.07;3.03;;;18.50;65.30;;;;;;5064580;28;43557;-75
2023/04/17 04:07:10;;;;;;;3.17;3.07;;;18.50;65.20;;;;;;5064112;28;44691;-77
2023/04/17 04:09:39;;;;;;;2.77;2.77;;;18.40;65.10;;;;;;5063886;28;45395;-77
2023/04/17 04:12:08;;;;;;;2.77;2.77;;;18.40;65.10;;;;;;5065953;28;43361;-76
2023/04/17 04:14:41;;;;;;;3.13;3.03;;;18.40;65.20;;;;;;5064335;28;43529;-77
2023/04/17 04:17:14;;;;;;;3.00;3.00;;;18.30;65.50;;;;;;5053307;28;45136;-76
2023/04/17 04:19:44;;;;;;;2.97;2.97;;;18.40;65.40;;;;;;5063639;28;43449;-76
2023/04/17 04:22:13;;;;;;;2.50;2.50;;;18.40;65.30;;;;;;5063932;28;43440;-76
2023/04/17 04:24:47;;;;;;;2.87;2.87;;;18.40;65.40;;;;;;5064170;28;43509;-76
2023/04/17 04:27:21;;;;;;;2.73;2.73;;;18.40;65.40;;;;;;5063795;28;44137;-76
2023/04/17 04:29:50;;;;;;;2.80;2.80;;;18.30;65.50;;;;;;5059626;28;43512;-76
2023/04/17 04:32:24;;;;;;;3.00;2.90;;;18.30;65.60;;;;;;5051991;28;43816;-76
2023/04/17 04:34:55;;;;;;;2.93;2.83;;;18.40;65.40;;;;;;5063908;28;43592;-76
2023/04/17 04:37:28;;;;;;;3.10;3.10;;;18.50;65.00;;;;;;5066007;28;43825;-76
2023/04/17 04:40:09;;;;;;;2.73;2.73;;;18.60;64.80;;;;;;5063966;28;44784;-77
2023/04/17 04:42:40;;;;;;;3.10;3.00;;;18.60;64.70;;;;;;5061563;28;43885;-76
2023/04/17 04:45:15;;;;;;;3.20;3.10;;;18.50;64.90;;;;;;5066026;28;43620;-75
2023/04/17 04:47:45;;;;;;;2.97;2.97;;;18.50;64.90;;;;;;5050413;28;44050;-76
2023/04/17 04:50:14;;;;;;;2.50;2.50;;;18.50;64.80;;;;;;5066546;28;45136;-75
2023/04/17 04:52:42;;;;;;;2.80;2.80;;;18.50;64.80;;;;;;5067112;28;44041;-76
2023/04/17 04:55:25;;;;;;;2.60;2.60;;;18.50;65.00;;;;;;5063713;28;43419;-76
2023/04/17 04:57:56;;;;;;;2.80;2.80;;;18.40;65.10;;;;;;5067066;28;45929;-75
2023/04/17 05:00:27;;;;;;;3.10;3.00;;;18.40;65.50;;;;;;5067172;28;43458;-76
2023/04/17 05:02:59;;;;;;;3.30;3.23;;;18.40;65.30;;;;;;5066882;28;43431;-77
2023/04/17 05:05:29;;;;;;;2.77;2.77;;;18.40;65.20;;;;;;5067753;28;44095;-77
2023/04/17 05:07:57;;;;;;;2.87;2.87;;;18.40;65.30;;;;;;5067212;28;45560;-77
2023/04/17 05:10:30;;;;;;;2.83;2.83;;;18.40;65.40;;;;;;5067432;28;45341;-77
2023/04/17 05:13:01;;;;;;;3.00;3.00;;;18.30;65.50;;;;;;5066715;28;43424;-74
2023/04/17 05:15:29;;;;;;;2.70;2.70;;;18.40;65.70;;;;;;5067337;28;43467;-76
2023/04/17 05:17:58;;;;;;;2.83;2.83;;;18.40;65.40;;;;;;5065835;28;44650;-76
2023/04/17 05:20:30;;;;;;;2.60;2.60;;;18.50;65.20;;;;;;5064690;28;43449;-77
2023/04/17 05:22:58;;;;;;;2.83;2.83;;;18.60;65.00;;;;;;5068495;28;44010;-76
2023/04/17 05:25:26;;;;;;;2.87;2.77;;;18.50;64.80;;;;;;5067424;28;43909;-76
2023/04/17 05:27:56;;;;;;;3.00;3.00;;;18.50;65.20;;;;;;5060192;28;44909;-75
2023/04/17 05:30:24;;;;;;;2.93;2.93;;;18.50;65.10;;;;;;5069253;28;43454;-76
2023/04/17 05:33:07;;;;;;;2.80;2.80;;;18.50;65.00;;;;;;5056503;28;43566;-76
2023/04/17 05:35:47;;;;;;;2.70;2.70;;;18.50;65.10;;;;;;5062599;28;43428;-76
2023/04/17 05:38:15;;;;;;;3.20;3.00;;;18.40;65.20;;;;;;5066132;28;44742;-76
2023/04/17 05:40:43;;;;;;;3.10;3.00;;;18.40;65.30;;;;;;5066181;28;45173;-77
2023/04/17 05:43:11;;;;;;;2.83;2.83;;;18.40;65.60;;;;;;5067945;28;43503;-77
2023/04/17 05:45:41;;;;;;;2.70;2.70;;;18.40;65.30;;;;;;5053589;28;43379;-76
2023/04/17 05:48:10;;;;;;;2.90;2.90;;;18.40;65.30;;;;;;5065833;28;45745;-74
2023/04/17 05:50:38;;;;;;;2.80;2.80;;;18.40;65.40;;;;;;5067688;28;43439;-76
2023/04/17 05:53:07;;;;;;;3.23;3.13;;;18.40;65.50;;;;;;5066437;28;43924;-76
2023/04/17 05:55:44;;;;;;;2.73;2.73;;;18.40;65.60;;;;;;5065614;28;43565;-77
2023/04/17 05:58:13;;;;;;;2.63;2.63;;;18.40;65.70;;;;;;5060460;28;45771;-76
2023/04/17 06:00:45;;;;;;;2.93;2.83;;;18.50;65.50;;;;;;5065654;28;44695;-76
2023/04/17 06:03:17;;;;;;;2.57;2.57;;;18.60;65.20;;;;;;5052130;28;43383;-77
2023/04/17 06:05:48;;;;;;;2.70;2.70;;;18.60;64.80;;;;;;5066604;28;43475;-76
2023/04/17 06:08:16;;;;;;;2.90;2.90;;;18.60;64.70;;;;;;5067419;28;43610;-76
2023/04/17 06:10:45;;;;;;;2.90;2.90;;;18.60;65.00;;;;;;5067437;28;43544;-75
2023/04/17 06:13:13;;;;;;;3.00;3.00;;;18.60;65.00;;;;;;5067396;28;43442;-77
2023/04/17 06:15:45;;;;;;;2.80;2.80;;;18.60;64.80;;;;;;5055543;28;43465;-77
2023/04/17 06:18:16;;;;;;;2.80;2.70;;;18.50;64.80;;;;;;5060737;28;45700;-75
2023/04/17 06:20:45;;;;;;;2.60;2.60;;;18.50;65.10;;;;;;5065419;28;44007;-76
2023/04/17 06:23:13;;;;;;;2.77;2.77;;;18.50;65.20;;;;;;5067894;28;43371;-75
2023/04/17 06:25:42;;;;;;;2.80;2.80;;;18.40;65.40;;;;;;5067647;28;44549;-74
2023/04/17 06:28:10;;;;;;;2.87;2.77;;;18.40;65.30;;;;;;5059159;28;45826;-76
2023/04/17 06:30:38;;;;;;;2.67;2.67;;;18.40;65.20;;;;;;5058697;28;43403;-76
2023/04/17 06:33:07;;;;;;;2.50;2.50;;;18.40;65.30;;;;;;5054918;28;43474;-76
2023/04/17 06:35:39;;;;;;;3.20;3.10;;;18.40;65.40;;;;;;5051705;28;43507;-76
2023/04/17 06:38:26;;;;;;;2.80;2.80;;;18.40;65.50;;;;;;5060923;28;43810;-75
2023/04/17 06:40:54;;;;;;;2.80;2.80;;;18.40;65.70;;;;;;5062311;28;44496;-76
2023/04/17 06:43:22;;;;;;;2.77;2.77;;;18.40;65.40;;;;;;5065386;28;43339;-75
2023/04/17 06:45:52;;;;;;;2.80;2.80;;;18.40;65.40;;;;;;5065789;28;43976;-77
2023/04/17 06:48:20;;;;;;;2.80;2.80;;;18.40;65.60;;;;;;5065464;28;45730;-78
2023/04/17 06:50:50;;;;;;;3.07;3.00;;;18.40;65.60;;;;;;5066730;28;43389;-76
2023/04/17 06:53:18;;;;;;;2.63;2.63;;;18.40;65.80;;;;;;5066950;28;43471;-77
2023/04/17 06:55:47;;;;;;;3.10;3.00;;;18.40;65.80;;;;;;5067271;28;43985;-76
2023/04/17 06:58:15;;;;;;;2.80;2.80;;;18.50;65.50;;;;;;5065108;28;45076;-74
2023/04/17 07:00:43;;;;;;;2.70;2.70;;;18.60;65.20;;;;;;5066476;28;43403;-76
2023/04/17 07:03:12;;;;;;;2.80;2.80;;;18.60;64.90;;;;;;5065091;28;43396;-76
2023/04/17 07:05:41;;;;;;;2.73;2.73;;;18.60;64.80;;;;;;5067328;28;43430;-76
2023/04/17 07:08:08;;;;;;;3.03;2.93;;;18.60;65.00;;;;;;5064114;28;45572;-75
2023/04/17 07:10:36;;;;;;;2.90;2.83;;;18.60;65.90;;;;;;5064166;28;43446;-76
2023/04/17 07:13:06;;;;;;;2.63;2.63;;;18.60;65.00;;;;;;5066486;28;43412;-77
2023/04/17 07:15:36;;;;;;;2.73;2.73;;;18.60;65.10;;;;;;5066937;28;43404;-77
2023/04/17 07:18:04;;;;;;;2.43;2.43;;;18.50;65.10;;;;;;5062674;28;43610;-77
2023/04/17 07:20:33;;;;;;;2.60;2.60;;;18.50;65.30;;;;;;5064475;28;43431;-76
2023/04/17 07:23:01;;;;;;;3.27;3.17;;;18.40;65.50;;;;;;5066570;28;43458;-72
2023/04/17 07:25:28;;;;;;;3.00;2.90;;;18.50;65.50;;;;;;5067099;28;43641;-75
2023/04/17 07:27:56;;;;;;;2.80;2.80;;;18.50;65.30;;;;;;5059683;28;43942;-76
2023/04/17 07:30:27;;;;;;;3.10;3.00;;;18.50;65.40;;;;;;5054038;28;44710;-76
2023/04/17 07:32:55;;;;;;;3.07;3.07;;;18.40;65.40;;;;;;5064702;28;43344;-77
2023/04/17 07:35:23;;;;;;;3.03;3.03;;;18.40;65.60;;;;;;5066685;28;43392;-76
2023/04/17 07:37:51;;;;;;;3.00;3.00;;;18.40;65.80;;;;;;5066084;28;43920;-76
2023/04/17 07:40:19;;;;;;;2.73;2.73;;;18.40;65.50;;;;;;5065865;28;43538;-77
2023/04/17 07:42:47;;;;;;;2.60;2.60;;;18.40;65.40;;;;;;5066341;28;43447;-76
2023/04/17 07:45:14;;;;;;;3.03;2.93;;;18.40;65.60;;;;;;5066348;28;43900;-76
2023/04/17 07:47:44;;;;;;;2.70;2.70;;;18.40;65.60;;;;;;5065988;28;43923;-76
2023/04/17 07:50:12;;;;;;;3.00;3.00;;;18.40;65.70;;;;;;5064538;28;44509;-77
2023/04/17 07:52:40;;;;;;;2.67;2.67;;;18.40;65.90;;;;;;5066245;28;43892;-76
2023/04/17 07:55:08;;;;;;;2.80;2.77;;;18.40;65.70;;;;;;5066439;28;43504;-75
2023/04/17 07:57:41;;;;;;;2.87;2.80;;;18.50;65.40;;;;;;5066015;28;44970;-75
2023/04/17 08:00:12;;;;;;;2.80;2.80;;;18.70;65.10;;;;;;5064469;28;44458;-77
2023/04/17 08:02:40;;;;;;;3.10;3.10;;;18.70;64.80;;;;;;5063904;28;43481;-75
2023/04/17 08:05:10;;;;;;;3.27;3.17;;;18.70;64.70;;;;;;5067911;28;43426;-75
2023/04/17 08:07:42;;;;;;;3.37;3.27;;;18.60;64.90;;;;;;5065772;28;43658;-75
2023/04/17 08:10:10;;;;;;;2.83;2.83;;;18.60;65.10;;;;;;5059490;28;43972;-74
2023/04/17 08:12:38;;;;;;;3.00;2.90;;;18.60;64.80;;;;;;5059675;28;43363;-76
2023/04/17 08:15:07;;;;;;;3.30;3.20;;;18.60;64.90;;;;;;5065914;28;43982;-76
2023/04/17 08:17:35;;;;;;;2.87;2.87;;;18.60;65.80;;;;;;5065526;28;43766;-76
2023/04/17 08:20:10;;;;;;;3.07;3.03;;;18.50;65.10;;;;;;5062557;28;43392;-76
2023/04/17 08:22:42;;;;;;;2.90;2.90;;;18.50;65.50;;;;;;5068637;28;43580;-77
2023/04/17 08:25:10;;;;;;;3.00;3.00;;;18.50;65.40;;;;;;5068246;28;43462;-76
2023/04/17 08:27:39;;;;;;;3.17;3.07;;;18.50;65.20;;;;;;5065789;28;43911;-75
2023/04/17 08:30:08;;;;;;;2.97;2.97;;;18.40;65.40;;;;;;5069001;28;43491;-76
2023/04/17 08:32:39;;;;;;;2.90;2.90;;;18.40;65.40;;;;;;5069188;28;43436;-75
2023/04/17 08:35:08;;;;;;;3.20;3.10;;;18.40;65.50;;;;;;5067177;28;43569;-77
2023/04/17 08:37:36;;;;;;;3.53;3.33;;;18.40;65.80;;;;;;5067302;28;45728;-75
2023/04/17 08:40:08;;;;;;;3.30;3.20;;;18.40;65.50;;;;;;5068669;28;43472;-77
2023/04/17 08:42:36;;;;;;;3.93;3.03;;;18.40;65.60;;;;;;5069120;28;43356;-77
2023/04/17 08:45:05;;;;;;;3.30;3.20;;;18.40;65.70;;;;;;5068040;28;43426;-78
2023/04/17 08:47:33;;;;;;;7.77;4.83;;;18.40;65.70;;;;;;5059712;28;45997;-78
2023/04/17 08:50:05;;;;;;;11.57;4.87;;;18.30;65.10;;;;;;5068329;28;43534;-71
2023/04/17 08:52:34;;;;;;;24.90;5.17;;;18.40;65.30;;;;;;5052029;28;43433;-78
2023/04/17 08:55:02;;;;;;;16.33;5.77;;;18.50;65.20;;;;;;5067636;28;43426;-76
2023/04/17 08:57:31;;;;;;;20.73;6.77;;;18.60;65.00;;;;;;5068840;28;43942;-78
2023/04/17 09:00:05;;;;;;;23.27;6.87;;;18.60;64.50;;;;;;5067052;28;45047;-76
2023/04/17 09:02:36;;;;;;;15.67;6.93;;;18.60;63.80;;;;;;5053591;28;43445;-77
2023/04/17 09:05:10;;;;;;;16.20;7.20;;;18.60;64.70;;;;;;5063701;28;43539;-78
2023/04/17 09:07:43;;;;;;;17.87;7.90;;;18.60;64.80;;;;;;5067144;28;43839;-76
2023/04/17 09:10:11;;;;;;;13.73;6.70;;;18.60;64.10;;;;;;5068601;28;43376;-77
2023/04/17 09:12:40;;;;;;;9.90;6.43;;;18.50;64.30;;;;;;5068812;28;43507;-75
2023/04/17 09:15:15;;;;;;;14.73;7.00;;;18.50;64.60;;;;;;5072317;28;43493;-77
2023/04/17 09:17:43;;;;;;;13.60;7.33;;;18.40;64.70;;;;;;5066201;28;46118;-77
2023/04/17 09:20:11;;;;;;;13.07;7.07;;;18.40;65.30;;;;;;5071938;28;43390;-74
2023/04/17 09:22:40;;;;;;;10.83;6.93;;;18.40;65.00;;;;;;5068310;28;43440;-77
2023/04/17 09:25:16;;;;;;;8.53;6.47;;;18.40;64.80;;;;;;5068791;28;43361;-76
2023/04/17 09:27:45;;;;;;;10.37;6.57;;;18.40;65.00;;;;;;5059618;28;44062;-77
2023/04/17 09:30:13;;;;;;;8.90;6.23;;;18.40;65.20;;;;;;5071063;28;43462;-77
2023/04/17 09:32:41;;;;;;;12.03;6.97;;;18.40;65.40;;;;;;5068324;28;43429;-77
2023/04/17 09:35:10;;;;;;;12.00;7.00;;;18.40;65.60;;;;;;5068302;28;43447;-77
2023/04/17 09:37:50;;;;;;;11.20;6.63;;;18.40;65.40;;;;;;5068081;28;43887;-75
2023/04/17 09:40:18;;;;;;;9.53;6.50;;;18.50;65.10;;;;;;5066531;28;44818;-77
2023/04/17 09:42:58;;;;;;;14.27;6.97;;;18.50;64.70;;;;;;5068438;28;43485;-76
2023/04/17 09:45:31;;;;;;;8.23;6.27;;;18.50;64.50;;;;;;5065721;28;44054;-77
2023/04/17 09:47:59;;;;;;;7.43;5.73;;;18.50;64.90;;;;;;5063542;28;43832;-77
2023/04/17 09:50:28;;;;;;;10.50;6.23;;;18.50;65.10;;;;;;5066498;28;45068;-75
2023/04/17 09:52:56;;;;;;;7.47;6.30;;;18.50;64.80;;;;;;5068495;28;43871;-77
2023/04/17 09:55:25;;;;;;;7.77;6.10;;;18.40;64.80;;;;;;5068067;28;43454;-77
2023/04/17 09:57:55;;;;;;;7.97;6.63;;;18.40;65.00;;;;;;5065314;28;45979;-77
2023/04/17 10:00:26;;;;;;;7.60;5.77;;;18.40;65.10;;;;;;5067479;28;43393;-77
2023/04/17 10:02:55;;;;;;;10.20;6.63;;;18.30;65.40;;;;;;5065724;28;44113;-77
2023/04/17 10:05:24;;;;;;;7.43;6.07;;;18.30;65.20;;;;;;5068254;28;43877;-78
2023/04/17 10:07:52;;;;;;;7.53;5.73;;;18.30;64.90;;;;;;5067905;28;43989;-78
2023/04/17 10:10:25;;;;;;;6.10;5.33;;;18.30;65.00;;;;;;5066661;28;43495;-78
2023/04/17 10:12:54;;;;;;;6.73;6.10;;;18.30;65.10;;;;;;5064506;28;43449;-77
2023/04/17 10:15:24;;;;;;;6.37;5.80;;;18.30;65.30;;;;;;5066952;28;43561;-78
2023/04/17 10:17:55;;;;;;;8.70;5.70;;;18.30;65.60;;;;;;5064064;28;43795;-76
2023/04/17 10:20:36;;;;;;;6.83;5.90;;;18.30;65.30;;;;;;5067744;28;43335;-78
2023/04/17 10:23:28;;;;;;;6.43;5.37;;;18.30;65.10;;;;;;5067519;28;43462;-78
2023/04/17 10:26:39;;;;;;;6.47;5.87;;;18.30;65.30;;;;;;5063974;28;43466;-77
2023/04/17 10:29:09;;;;;;;8.70;6.10;;;18.30;65.30;;;;;;5061140;28;45681;-78
2023/04/17 10:32:17;;;;;;;6.93;5.73;;;18.20;65.70;;;;;;5067457;28;43453;-77
2023/04/17 10:34:46;;;;;;;8.03;5.47;;;18.30;65.60;;;;;;5048505;28;43870;-77
2023/04/17 10:37:16;;;;;;;6.33;5.50;;;18.40;65.20;;;;;;5067878;28;43443;-77
2023/04/17 10:39:55;;;;;;;6.87;6.20;;;18.50;64.90;;;;;;5065667;28;45890;-77
2023/04/17 10:42:24;;;;;;;6.83;5.70;;;18.60;64.60;;;;;;5066348;28;43426;-77
2023/04/17 10:44:56;;;;;;;6.20;5.60;;;18.50;64.50;;;;;;5067166;28;43461;-78
2023/04/17 10:47:32;;;;;;;6.40;5.80;;;18.50;65.10;;;;;;5067398;28;43496;-78
2023/04/17 10:50:02;;;;;;;6.00;5.37;;;18.50;64.90;;;;;;5067128;28;43849;-77
2023/04/17 10:52:41;;;;;;;6.27;5.30;;;18.40;64.60;;;;;;5056014;28;44413;-77
2023/04/17 10:55:13;;;;;;;5.30;4.90;;;18.40;64.70;;;;;;5065282;28;43851;-77
2023/04/17 10:58:12;;;;;;;5.57;5.17;;;18.40;64.90;;;;;;5060838;28;43335;-77
2023/04/17 11:00:51;;;;;;;5.60;4.90;;;18.30;65.30;;;;;;5022601;28;45679;-77
2023/04/17 11:03:22;;;;;;;5.40;4.97;;;18.30;65.30;;;;;;5066281;28;43529;-77
2023/04/17 11:05:51;;;;;;;5.17;4.77;;;18.30;65.00;;;;;;5066821;28;43720;-76
2023/04/17 11:08:19;;;;;;;5.07;4.77;;;18.30;65.00;;;;;;5066597;28;43457;-78
2023/04/17 11:10:47;;;;;;;5.50;5.00;;;18.30;65.20;;;;;;5070602;28;43876;-75
2023/04/17 11:13:15;;;;;;;5.27;4.80;;;18.30;65.20;;;;;;5066189;28;43841;-76
2023/04/17 11:15:43;;;;;;;4.93;4.63;;;18.30;66.40;;;;;;5066215;28;44011;-77
2023/04/17 11:18:11;;;;;;;5.40;4.90;;;18.30;65.30;;;;;;5065833;28;43439;-77
2023/04/17 11:20:41;;;;;;;4.57;4.37;;;18.30;65.10;;;;;;5064878;28;45660;-76
2023/04/17 11:23:09;;;;;;;4.93;4.53;;;18.30;65.30;;;;;;5059497;28;44409;-77
2023/04/17 11:25:37;;;;;;;4.70;4.47;;;18.30;65.40;;;;;;5066565;28;43769;-78
2023/04/17 11:28:06;;;;;;;5.23;4.63;;;18.20;65.30;;;;;;5058778;28;43915;-77
2023/04/17 11:30:35;;;;;;;5.13;4.73;;;18.30;65.80;;;;;;5066431;28;44023;-76
2023/04/17 11:33:03;;;;;;;4.90;4.50;;;18.30;65.60;;;;;;5062730;28;44712;-77
2023/04/17 11:35:32;;;;;;;4.70;4.40;;;18.40;65.30;;;;;;5066235;28;44523;-75
2023/04/17 11:38:12;;;;;;;4.73;4.43;;;18.50;65.00;;;;;;5067060;28;43510;-78
2023/04/17 11:40:45;;;;;;;4.40;4.17;;;18.50;64.60;;;;;;5065827;28;44535;-77
2023/04/17 11:43:13;;;;;;;4.80;4.50;;;18.50;64.50;;;;;;5066408;28;43369;-77
2023/04/17 11:45:42;;;;;;;4.63;4.37;;;18.50;64.90;;;;;;5064677;28;43421;-77
2023/04/17 11:48:11;;;;;;;5.40;5.00;;;18.50;64.80;;;;;;5065014;28;44037;-76
2023/04/17 11:50:39;;;;;;;4.33;4.13;;;18.50;64.60;;;;;;5065934;28;44478;-77
2023/04/17 11:53:07;;;;;;;4.40;4.20;;;18.40;64.80;;;;;;5060096;28;43537;-73
2023/04/17 11:55:36;;;;;;;4.20;4.00;;;18.40;64.90;;;;;;5068848;28;44013;-77
2023/04/17 11:58:06;;;;;;;4.23;3.93;;;18.30;65.00;;;;;;5069520;28;44210;-77
2023/04/17 12:00:34;;;;;;;4.13;3.93;;;18.30;65.40;;;;;;5067817;28;44059;-77
2023/04/17 12:03:03;;;;;;;4.40;4.00;;;18.40;65.10;;;;;;5069059;28;43449;-77
2023/04/17 12:05:31;;;;;;;4.40;4.20;;;18.30;65.80;;;;;;5069700;28;43403;-75
2023/04/17 12:08:01;;;;;;;4.10;3.90;;;18.30;65.20;;;;;;5071215;28;43459;-77
2023/04/17 12:10:41;;;;;;;3.83;3.73;;;18.30;65.30;;;;;;5069250;28;44082;-77
2023/04/17 12:13:09;;;;;;;3.90;3.70;;;18.20;65.60;;;;;;5069550;28;43495;-75
2023/04/17 12:15:38;;;;;;;4.27;4.07;;;18.30;65.60;;;;;;5067522;28;43986;-77
2023/04/17 12:18:08;;;;;;;4.13;3.93;;;18.30;65.30;;;;;;5067622;28;43550;-76
2023/04/17 12:20:36;;;;;;;3.77;3.67;;;18.30;65.30;;;;;;5069522;28;43955;-77
2023/04/17 12:23:04;;;;;;;4.30;4.03;;;18.20;65.20;;;;;;5068993;28;43412;-75
2023/04/17 12:25:32;;;;;;;4.03;3.83;;;18.20;65.30;;;;;;5069432;28;43438;-76
2023/04/17 12:28:03;;;;;;;4.20;4.00;;;18.20;65.70;;;;;;5064495;28;44155;-77
2023/04/17 12:30:32;;;;;;;4.10;3.90;;;18.30;65.70;;;;;;5062446;28;45894;-76
2023/04/17 12:33:00;;;;;;;4.20;4.00;;;18.40;65.50;;;;;;5071901;28;43985;-76
2023/04/17 12:35:28;;;;;;;4.07;3.93;;;18.40;65.10;;;;;;5063161;28;43311;-76
2023/04/17 12:37:56;;;;;;;4.23;3.93;;;18.50;64.90;;;;;;5063154;28;43403;-78
2023/04/17 12:40:24;;;;;;;3.93;3.73;;;18.50;64.70;;;;;;5066855;28;46057;-78
2023/04/17 12:42:52;;;;;;;3.77;3.67;;;18.50;65.00;;;;;;5067524;28;45136;-78
2023/04/17 12:45:22;;;;;;;4.00;3.80;;;18.50;64.90;;;;;;5067677;28;43435;-77
2023/04/17 12:47:50;;;;;;;3.60;3.50;;;18.50;64.70;;;;;;5072358;28;43442;-75
2023/04/17 12:50:18;;;;;;;3.50;3.40;;;18.40;64.60;;;;;;5068569;28;43661;-75
2023/04/17 12:52:46;;;;;;;3.90;3.50;;;18.40;64.80;;;;;;5068816;28;43463;-75
2023/04/17 12:55:14;;;;;;;3.37;3.27;;;18.40;65.10;;;;;;5069040;28;43478;-75
2023/04/17 12:57:42;;;;;;;3.40;3.30;;;18.30;65.40;;;;;;5069369;28;43934;-75
2023/04/17 13:00:11;;;;;;;3.60;3.50;;;18.30;65.30;;;;;;5069063;28;46160;-75